.
WxDataArchive / Data Records for 2012-12-27
2012-12-26 December 2012 2012-12-28

Data Records for Thursday, 27 December 2012

Time	Temp	Chill	HIndex	Humid	Dewpt	 Wind 	HiWind	WindDir	Rain 	Barom 
-----	----	-----	------	-----	-----	------	------	-------	-----	----- 
00:00	26.6	26.6	26.6	82	21.9	1	3	315	0.00	29.949 
00:05	26.6	26.6	26.6	82	21.9	2	5	315	0.00	29.949 
00:10	26.6	26.6	26.6	82	21.9	2	6	315	0.00	29.949 
00:15	26.4	26.4	26.4	82	21.7	1	5	315	0.00	29.951 
00:20	26.4	26.4	26.4	82	21.7	1	3	0	0.00	29.951 
00:25	26.4	26.4	26.4	82	21.7	1	4	315	0.00	29.951 
00:30	26.3	26.3	26.3	81	21.3	2	5	315	0.00	29.954 
00:35	26.3	26.3	26.3	81	21.3	1	4	338	0.00	29.954 
00:40	26.1	26.1	26.1	81	21.1	2	5	0	0.00	29.954 
00:45	26.1	26.1	26.1	81	21.1	2	6	338	0.00	29.956 
00:50	26.1	26.1	26.1	81	21.1	1	4	248	0.00	29.956 
00:55	26.0	26.0	26.0	81	21.0	1	5	315	0.00	29.956 
01:00	26.0	26.0	26.0	81	21.0	1	3	292	0.00	29.957 
01:05	26.0	26.0	26.0	81	21.0	2	6	270	0.00	29.957 
01:10	25.8	25.8	25.8	81	20.8	2	6	292	0.00	29.957 
01:15	25.8	25.8	25.8	81	20.8	2	7	292	0.00	29.967 
01:20	25.8	25.8	25.8	81	20.8	1	4	292	0.00	29.967 
01:25	25.7	25.7	25.7	81	20.7	1	3	292	0.00	29.967 
01:30	25.7	25.7	25.7	81	20.7	2	9	338	0.00	29.971 
01:35	25.6	25.6	25.6	81	20.6	2	5	270	0.00	29.971 
01:40	25.6	25.6	25.6	80	20.3	2	6	292	0.00	29.971 
01:45	25.4	25.4	25.4	80	20.1	2	5	338	0.00	29.975 
01:50	25.4	25.4	25.4	80	20.1	2	5	0	0.00	29.975 
01:55	25.4	25.4	25.4	80	20.1	2	5	292	0.00	29.975 
02:00	25.4	25.4	25.4	80	20.1	2	5	315	0.00	29.985 
02:05	25.4	25.4	25.4	80	20.1	1	7	270	0.00	29.985 
02:10	25.4	25.4	25.4	80	20.1	2	8	315	0.00	29.985 
02:15	25.3	25.3	25.3	80	20.0	2	6	0	0.00	29.989 
02:20	25.3	25.3	25.3	80	20.0	2	6	292	0.00	29.989 
02:25	25.3	25.3	25.3	80	20.0	2	6	292	0.00	29.989 
02:30	25.3	25.3	25.3	80	20.0	1	3	0	0.00	29.991 
02:35	25.3	25.3	25.3	80	20.0	2	4	270	0.00	29.991 
02:40	25.3	25.3	25.3	80	20.0	2	5	270	0.00	29.991 
02:45	25.3	25.3	25.3	80	20.0	1	4	270	0.00	30.001 
02:50	25.3	25.3	25.3	80	20.0	2	6	338	0.00	30.001 
02:55	25.1	25.1	25.1	80	19.8	1	5	315	0.00	30.001 
03:00	25.0	25.0	25.0	80	19.7	2	7	292	0.00	30.008 
03:05	24.8	24.8	24.8	80	19.5	3	7	292	0.00	30.008 
03:10	24.8	24.8	24.8	80	19.5	2	6	315	0.00	30.008 
03:15	24.7	24.7	24.7	80	19.4	1	4	0	0.00	30.018 
03:20	24.7	24.7	24.7	81	19.7	2	7	270	0.00	30.018 
03:25	24.7	24.7	24.7	81	19.7	2	5	292	0.00	30.018 
03:30	24.5	24.5	24.5	81	19.5	2	6	338	0.00	30.023 
03:35	24.5	24.5	24.5	81	19.5	2	5	338	0.00	30.023 
03:40	24.4	24.4	24.4	81	19.4	2	5	338	0.00	30.023 
03:45	24.4	24.4	24.4	81	19.4	2	4	292	0.00	30.022 
03:50	24.4	24.4	24.4	81	19.4	2	9	292	0.00	30.022 
03:55	24.2	24.2	24.2	81	19.2	2	4	22	0.00	30.022 
04:00	24.2	24.2	24.2	81	19.2	1	6	338	0.00	30.028 
04:05	24.2	24.2	24.2	81	19.2	2	6	292	0.00	30.028 
04:10	24.2	24.2	24.2	81	19.2	2	4	248	0.00	30.028 
04:15	24.2	24.2	24.2	81	19.2	1	4	270	0.00	30.030 
04:20	24.2	24.2	24.2	81	19.2	1	5	338	0.00	30.030 
04:25	24.1	24.1	24.1	81	19.1	2	5	315	0.00	30.030 
04:30	24.1	24.1	24.1	81	19.1	2	6	292	0.00	30.034 
04:35	24.1	24.1	24.1	81	19.1	1	3	292	0.00	30.034 
04:40	24.1	24.1	24.1	81	19.1	2	6	270	0.00	30.034 
04:45	24.1	24.1	24.1	81	19.1	2	5	315	0.00	30.037 
04:50	24.1	24.1	24.1	81	19.1	1	4	270	0.00	30.037 
04:55	24.1	24.1	24.1	81	19.1	2	5	338	0.00	30.037 
05:00	23.9	23.9	23.9	81	18.9	1	5	315	0.00	30.047 
05:05	23.9	23.9	23.9	81	18.9	2	5	338	0.00	30.047 
05:10	23.8	23.8	23.8	81	18.8	2	4	292	0.00	30.047 
05:15	23.8	23.8	23.8	81	18.8	2	7	292	0.00	30.052 
05:20	23.6	23.6	23.6	81	18.6	2	6	270	0.00	30.052 
05:25	23.6	23.6	23.6	81	18.6	1	5	315	0.00	30.052 
05:30	23.6	23.6	23.6	81	18.6	1	3	292	0.00	30.055 
05:35	23.5	23.5	23.5	81	18.5	3	6	292	0.00	30.055 
05:40	23.5	23.5	23.5	81	18.5	2	5	292	0.00	30.055 
05:45	23.3	23.3	23.3	81	18.3	1	5	315	0.00	30.055 
05:50	23.3	23.3	23.3	81	18.3	1	5	270	0.00	30.055 
05:55	23.3	23.3	23.3	81	18.3	1	4	270	0.00	30.055 
06:00	23.3	23.3	23.3	81	18.3	1	3	270	0.00	30.072 
06:05	23.5	23.5	23.5	81	18.5	1	3	315	0.00	30.072 
06:10	23.5	23.5	23.5	81	18.5	2	4	315	0.00	30.072 
06:15	23.5	23.5	23.5	81	18.5	1	3	315	0.00	30.079 
06:20	23.5	23.5	23.5	81	18.5	1	4	338	0.00	30.079 
06:25	23.5	23.5	23.5	81	18.5	1	4	270	0.00	30.079 
06:30	23.5	23.5	23.5	81	18.5	2	6	292	0.00	30.080 
06:35	23.5	23.5	23.5	81	18.5	1	4	315	0.00	30.080 
06:40	23.5	23.5	23.5	80	18.3	1	4	338	0.00	30.080 
06:45	23.5	23.5	23.5	80	18.3	1	4	315	0.00	30.081 
06:50	23.5	23.5	23.5	80	18.3	1	4	270	0.00	30.081 
06:55	23.5	23.5	23.5	80	18.3	2	5	270	0.00	30.081 
07:00	23.5	23.5	23.5	80	18.3	1	2	0	0.00	30.082 
07:05	23.5	23.5	23.5	80	18.3	1	4	270	0.00	30.082 
07:10	23.5	23.5	23.5	80	18.3	1	3	270	0.00	30.082 
07:15	23.5	23.5	23.5	80	18.3	1	5	315	0.00	30.091 
07:20	23.5	23.5	23.5	80	18.3	2	5	270	0.00	30.091 
07:25	23.5	23.5	23.5	80	18.3	1	4	338	0.00	30.091 
07:30	23.5	23.5	23.5	80	18.3	1	4	338	0.00	30.099 
07:35	23.5	23.5	23.5	80	18.3	2	4	248	0.00	30.099 
07:40	23.5	23.5	23.5	80	18.3	1	7	338	0.00	30.099 
07:45	23.5	23.5	23.5	80	18.3	2	4	270	0.00	30.100 
07:50	23.5	23.5	23.5	80	18.3	1	5	0	0.00	30.100 
07:55	23.3	23.3	23.3	80	18.1	1	4	270	0.00	30.100 
08:00	23.2	23.2	23.2	80	18.0	1	4	292	0.00	30.100 
08:05	23.0	23.0	23.0	80	17.8	1	3	292	0.00	30.100 
08:10	23.0	23.0	23.0	80	17.8	1	4	292	0.00	30.100 
08:15	22.9	22.9	22.9	80	17.7	1	3	292	0.00	30.110 
08:20	22.7	22.7	22.7	80	17.5	1	3	315	0.00	30.110 
08:25	22.5	22.5	22.5	80	17.3	0	3	292	0.00	30.110 
08:30	22.4	22.4	22.4	80	17.2	0	2	292	0.00	30.117 
08:35	22.4	22.4	22.4	80	17.2	0	1	292	0.00	30.117 
08:40	22.4	22.4	22.4	80	17.2	0	1	292	0.00	30.117 
08:45	22.5	22.5	22.5	81	17.6	0	1	292	0.00	30.124 
08:50	22.7	22.7	22.7	81	17.8	0	2	292	0.00	30.124 
08:55	23.0	23.0	23.0	81	18.1	0	2	292	0.00	30.124 
09:00	23.2	23.2	23.2	81	18.3	0	2	292	0.00	30.130 
09:05	23.3	23.3	23.3	81	18.3	0	3	292	0.00	30.130 
09:10	23.6	23.6	23.6	80	18.4	0	2	292	0.00	30.130 
09:15	23.8	23.8	23.8	80	18.5	0	2	292	0.00	30.131 
09:20	23.9	23.9	23.9	80	18.6	0	2	292	0.00	30.131 
09:25	24.1	24.1	24.1	80	18.8	0	2	292	0.00	30.131 
09:30	24.2	24.2	24.2	79	18.6	0	2	292	0.00	30.135 
09:35	24.2	24.2	24.2	79	18.6	1	3	292	0.00	30.135 
09:40	24.4	24.4	24.4	79	18.8	0	2	292	0.00	30.135 
09:45	24.5	24.5	24.5	79	18.9	0	3	292	0.00	30.138 
09:50	24.7	24.7	24.7	78	18.8	1	3	292	0.00	30.138 
09:55	24.7	24.7	24.7	78	18.8	1	3	315	0.00	30.138 
10:00	24.8	24.8	24.8	78	18.9	0	2	315	0.00	30.145 
10:05	25.0	25.0	25.0	78	19.1	1	3	315	0.00	30.145 
10:10	25.1	25.1	25.1	78	19.2	1	3	315	0.00	30.145 
10:15	25.3	25.3	25.3	77	19.1	1	3	315	0.00	30.146 
10:20	25.3	25.3	25.3	77	19.1	1	4	315	0.00	30.146 
10:25	25.4	25.4	25.4	77	19.2	1	3	315	0.00	30.146 
10:30	25.6	25.6	25.6	77	19.4	1	2	315	0.00	30.147 
10:35	25.6	25.6	25.6	76	19.1	1	4	315	0.00	30.147 
10:40	25.7	25.7	25.7	76	19.2	1	5	270	0.00	30.147 
10:45	25.8	25.8	25.8	76	19.3	1	4	270	0.00	30.154 
10:50	26.0	26.0	26.0	76	19.5	1	4	270	0.00	30.154 
10:55	26.1	26.1	26.1	76	19.6	0	2	270	0.00	30.154 
11:00	26.3	26.3	26.3	75	19.5	1	3	270	0.00	30.156 
11:05	26.4	26.4	26.4	75	19.6	1	3	270	0.00	30.156 
11:10	26.4	26.4	26.4	75	19.6	0	2	270	0.00	30.156 
11:15	26.7	26.7	26.7	75	19.9	0	1	270	0.00	30.157 
11:20	26.9	26.9	26.9	75	20.1	0	3	270	0.00	30.157 
11:25	27.0	27.0	27.0	75	20.2	1	3	270	0.00	30.157 
11:30	27.0	27.0	27.0	74	19.8	1	2	270	0.00	30.152 
11:35	27.2	27.2	27.2	74	20.0	1	3	270	0.00	30.152 
11:40	27.5	27.5	27.5	74	20.3	1	3	270	0.00	30.152 
11:45	27.5	27.5	27.5	74	20.3	1	3	270	0.00	30.145 
11:50	27.3	27.3	27.3	73	19.8	1	2	270	0.00	30.145 
11:55	27.6	27.6	27.6	74	20.4	0	2	270	0.00	30.145 
12:00	27.8	27.8	27.8	74	20.6	0	2	270	0.00	30.145 
12:05	27.9	27.9	27.9	73	20.4	0	2	270	0.00	30.145 
12:10	27.9	27.9	27.9	73	20.4	0	2	270	0.00	30.145 
12:15	27.9	27.9	27.9	73	20.4	0	2	270	0.00	30.145 
12:20	28.1	28.1	28.1	73	20.6	0	2	270	0.00	30.145 
12:25	28.2	28.2	28.2	73	20.7	0	2	270	0.00	30.145 
12:30	28.4	28.4	28.4	73	20.9	0	1	270	0.00	30.144 
12:35	28.5	28.5	28.5	73	21.0	0	1	270	0.00	30.144 
12:40	28.7	28.7	28.7	73	21.2	0	2	270	0.00	30.144 
12:45	28.8	28.8	28.8	73	21.3	0	1	270	0.00	30.142 
12:50	29.0	29.0	29.0	73	21.4	1	2	270	0.00	30.142 
12:55	29.0	29.0	29.0	73	21.4	0	3	270	0.00	30.142 
13:00	29.1	29.1	29.1	73	21.5	0	2	270	0.00	30.134 
13:05	29.1	29.1	29.1	73	21.5	0	1	270	0.00	30.134 
13:10	29.1	29.1	29.1	73	21.5	0	2	270	0.00	30.134 
13:15	29.3	29.3	29.3	73	21.7	0	2	270	0.00	30.129 
13:20	29.3	29.3	29.3	73	21.7	0	2	270	0.00	30.129 
13:25	29.4	29.4	29.4	73	21.8	0	2	270	0.00	30.129 
13:30	29.4	29.4	29.4	73	21.8	0	1	270	0.00	30.126 
13:35	29.5	29.5	29.5	73	21.9	0	2	270	0.00	30.126 
13:40	29.7	29.7	29.7	73	22.1	0	1	270	0.00	30.126 
13:45	30.0	30.0	30.0	73	22.4	0	1	270	0.00	30.125 
13:50	30.0	30.0	30.0	73	22.4	0	2	270	0.00	30.125 
13:55	30.0	30.0	30.0	73	22.4	0	2	270	0.00	30.125 
14:00	30.1	30.1	30.1	73	22.5	0	3	270	0.00	30.127 
14:05	30.1	30.1	30.1	73	22.5	0	2	270	0.00	30.127 
14:10	30.1	30.1	30.1	73	22.5	0	2	270	0.00	30.127 
14:15	30.0	30.0	30.0	73	22.4	0	1	270	0.00	30.115 
14:20	30.1	30.1	30.1	73	22.5	0	3	270	0.00	30.115 
14:25	30.3	30.3	30.3	73	22.7	0	1	270	0.00	30.115 
14:30	30.4	30.4	30.4	73	22.8	0	1	270	0.00	30.124 
14:35	30.6	30.6	30.6	73	23.0	0	2	270	0.00	30.124 
14:40	30.6	30.6	30.6	73	23.0	0	1	270	0.00	30.124 
14:45	30.6	30.6	30.6	73	23.0	0	1	270	0.00	30.120 
14:50	30.6	30.6	30.6	73	23.0	0	1	270	0.00	30.120 
14:55	30.6	30.6	30.6	73	23.0	0	2	270	0.00	30.120 
15:00	30.6	30.6	30.6	74	23.3	0	1	270	0.00	30.123 
15:05	30.6	30.6	30.6	74	23.3	0	1	270	0.00	30.123 
15:10	30.6	30.6	30.6	74	23.3	0	1	270	0.00	30.123 
15:15	30.6	30.6	30.6	74	23.3	0	1	270	0.00	30.127 
15:20	30.6	30.6	30.6	74	23.3	0	1	270	0.00	30.127 
15:25	30.6	30.6	30.6	74	23.3	0	1	270	0.00	30.127 
15:30	30.6	30.6	30.6	74	23.3	0	1	270	0.00	30.126 
15:35	30.6	30.6	30.6	74	23.3	0	1	270	0.00	30.126 
15:40	30.7	30.7	30.7	74	23.4	0	1	270	0.00	30.126 
15:45	30.7	30.7	30.7	74	23.4	0	1	270	0.00	30.127 
15:50	30.6	30.6	30.6	74	23.3	0	1	270	0.00	30.127 
15:55	30.6	30.6	30.6	73	23.0	0	1	270	0.00	30.127 
16:00	30.6	30.6	30.6	74	23.3	0	1	270	0.00	30.131 
16:05	30.6	30.6	30.6	74	23.3	0	1	270	0.00	30.131 
16:10	30.6	30.6	30.6	74	23.3	0	1	270	0.00	30.131 
16:15	30.6	30.6	30.6	74	23.3	0	1	270	0.01	30.132 
16:20	30.6	30.6	30.6	74	23.3	0	1	270	0.00	30.132 
16:25	30.4	30.4	30.4	74	23.1	0	1	270	0.00	30.132 
16:30	30.4	30.4	30.4	74	23.1	0	0	---	0.00	30.133 
16:35	30.4	30.4	30.4	74	23.1	0	0	---	0.00	30.133 
16:40	30.4	30.4	30.4	74	23.1	0	1	270	0.00	30.133 
16:45	30.4	30.4	30.4	74	23.1	0	0	---	0.00	30.137 
16:50	30.4	30.4	30.4	74	23.1	0	0	---	0.00	30.137 
16:55	30.4	30.4	30.4	75	23.4	0	1	270	0.00	30.137 
17:00	30.3	30.3	30.3	75	23.3	0	1	270	0.00	30.143 
17:05	30.3	30.3	30.3	75	23.3	0	0	---	0.00	30.143 
17:10	30.1	30.1	30.1	75	23.2	0	0	---	0.00	30.143 
17:15	30.1	30.1	30.1	76	23.5	0	0	---	0.00	30.146 
17:20	30.1	30.1	30.1	76	23.5	0	1	270	0.00	30.146 
17:25	30.1	30.1	30.1	76	23.5	0	1	270	0.00	30.146 
17:30	30.0	30.0	30.0	77	23.7	0	0	---	0.00	30.150 
17:35	30.0	30.0	30.0	77	23.7	0	0	---	0.00	30.150 
17:40	29.8	29.8	29.8	77	23.5	0	0	---	0.00	30.150 
17:45	29.8	29.8	29.8	77	23.5	0	0	---	0.00	30.153 
17:50	29.8	29.8	29.8	77	23.5	0	0	---	0.00	30.153 
17:55	29.8	29.8	29.8	77	23.5	0	0	---	0.00	30.153 
18:00	29.8	29.8	29.8	77	23.5	0	0	---	0.00	30.160 
18:05	29.8	29.8	29.8	78	23.8	0	0	---	0.00	30.160 
18:10	29.8	29.8	29.8	78	23.8	0	1	270	0.00	30.160 
18:15	29.8	29.8	29.8	78	23.8	0	1	270	0.00	30.169 
18:20	29.8	29.8	29.8	78	23.8	0	0	---	0.00	30.169 
18:25	29.8	29.8	29.8	78	23.8	0	0	---	0.00	30.169 
18:30	29.8	29.8	29.8	78	23.8	0	1	270	0.00	30.175 
18:35	30.0	30.0	30.0	78	24.0	0	1	270	0.00	30.175 
18:40	30.0	30.0	30.0	78	24.0	0	1	270	0.00	30.175 
18:45	30.0	30.0	30.0	78	24.0	0	1	270	0.00	30.182 
18:50	30.0	30.0	30.0	78	24.0	0	1	270	0.00	30.182 
18:55	30.0	30.0	30.0	78	24.0	0	1	270	0.00	30.182 
19:00	30.1	30.1	30.1	78	24.1	0	1	270	0.00	30.182 
19:05	30.1	30.1	30.1	78	24.1	0	1	270	0.00	30.182 
19:10	30.1	30.1	30.1	78	24.1	0	1	270	0.00	30.182 
19:15	30.1	30.1	30.1	78	24.1	0	1	270	0.00	30.186 
19:20	30.3	30.3	30.3	78	24.3	0	1	270	0.00	30.186 
19:25	30.3	30.3	30.3	78	24.3	0	1	270	0.00	30.186 
19:30	30.3	30.3	30.3	78	24.3	0	1	270	0.00	30.191 
19:35	30.3	30.3	30.3	78	24.3	0	1	270	0.00	30.191 
19:40	30.3	30.3	30.3	78	24.3	0	1	270	0.00	30.191 
19:45	30.3	30.3	30.3	78	24.3	0	1	270	0.00	30.182 
19:50	30.3	30.3	30.3	78	24.3	0	1	270	0.00	30.182 
19:55	30.3	30.3	30.3	78	24.3	0	0	---	0.00	30.182 
20:00	30.1	30.1	30.1	78	24.1	0	2	270	0.00	30.178 
20:05	30.1	30.1	30.1	78	24.1	0	0	---	0.00	30.178 
20:10	30.1	30.1	30.1	78	24.1	0	0	---	0.00	30.178 
20:15	30.1	30.1	30.1	78	24.1	0	0	---	0.00	30.176 
20:20	30.0	30.0	30.0	78	24.0	0	0	---	0.00	30.176 
20:25	30.0	30.0	30.0	78	24.0	0	0	---	0.00	30.176 
20:30	30.0	30.0	30.0	79	24.3	0	0	---	0.00	30.166 
20:35	30.0	30.0	30.0	79	24.3	0	0	---	0.00	30.166 
20:40	30.0	30.0	30.0	79	24.3	0	0	---	0.00	30.166 
20:45	29.8	29.8	29.8	79	24.1	0	0	---	0.00	30.165 
20:50	29.8	29.8	29.8	79	24.1	0	0	---	0.00	30.165 
20:55	29.8	29.8	29.8	79	24.1	0	0	---	0.00	30.165 
21:00	29.8	29.8	29.8	79	24.1	0	0	---	0.00	30.167 
21:05	29.8	29.8	29.8	79	24.1	0	0	---	0.00	30.167 
21:10	29.7	29.7	29.7	79	24.0	0	0	---	0.00	30.167 
21:15	29.7	29.7	29.7	80	24.3	0	0	---	0.00	30.162 
21:20	29.5	29.5	29.5	80	24.1	0	0	---	0.00	30.162 
21:25	29.5	29.5	29.5	80	24.1	0	0	---	0.00	30.162 
21:30	29.5	29.5	29.5	81	24.4	0	0	---	0.00	30.165 
21:35	29.4	29.4	29.4	81	24.3	0	0	---	0.00	30.165 
21:40	29.4	29.4	29.4	81	24.3	0	0	---	0.00	30.165 
21:45	29.4	29.4	29.4	82	24.6	0	0	---	0.00	30.161 
21:50	29.4	29.4	29.4	82	24.6	0	0	---	0.00	30.161 
21:55	29.4	29.4	29.4	82	24.6	0	0	---	0.00	30.161 
22:00	29.4	29.4	29.4	82	24.6	0	0	---	0.00	30.157 
22:05	29.3	29.3	29.3	82	24.5	0	0	---	0.00	30.157 
22:10	29.1	29.1	29.1	82	24.3	0	0	---	0.00	30.157 
22:15	29.1	29.1	29.1	83	24.6	0	0	---	0.00	30.156 
22:20	29.0	29.0	29.0	83	24.5	0	0	---	0.00	30.156 
22:25	29.0	29.0	29.0	83	24.5	0	0	---	0.00	30.156 
22:30	28.8	28.8	28.8	83	24.3	0	0	---	0.00	30.157 
22:35	28.8	28.8	28.8	83	24.3	0	0	---	0.00	30.157 
22:40	28.7	28.7	28.7	83	24.2	0	0	---	0.00	30.157 
22:45	28.7	28.7	28.7	84	24.5	0	0	---	0.00	30.158 
22:50	28.5	28.5	28.5	84	24.3	0	0	---	0.00	30.158 
22:55	28.5	28.5	28.5	84	24.3	0	0	---	0.00	30.158 
23:00	28.4	28.4	28.4	84	24.2	0	0	---	0.00	30.159 
23:05	28.2	28.2	28.2	84	24.0	0	0	---	0.00	30.159 
23:10	28.2	28.2	28.2	84	24.0	0	0	---	0.00	30.159 
23:15	28.1	28.1	28.1	84	23.9	0	0	---	0.00	30.163 
23:20	27.9	27.9	27.9	84	23.7	0	0	---	0.00	30.163 
23:25	27.9	27.9	27.9	85	24.0	0	0	---	0.00	30.163 
23:30	27.9	27.9	27.9	85	24.0	0	0	---	0.00	30.167 
23:35	27.9	27.9	27.9	85	24.0	0	0	---	0.00	30.167 
23:40	27.9	27.9	27.9	85	24.0	0	0	---	0.00	30.167 
23:45	27.9	27.9	27.9	86	24.3	0	0	---	0.00	30.165 
23:50	27.9	27.9	27.9	85	24.0	0	0	---	0.00	30.165 
23:55	27.9	27.9	27.9	85	24.0	0	0	---	0.00	30.165 

CoCoRaHS
IN-AL-39
A2 Web Hosting
Creative Commons License
GoDaddy
search engine by freefind advanced

loaded 2018-11-16 11:01:22 • last modified 2010-11-18 10:43:29
Privacy PolicyDisclaimer
• wx.awcolley.com is powered by PmWiki v.2002016 •
• all content (unless otherwise noted) © 2018 A W Colley